sensor_id;sensor_type;location;lat;lon;timestamp;pressure;altitude;pressure_sealevel;temperature;humidity
9899;BME280;4988;49.238;6.698;2023-04-05T00:02:19;99785.00;;;1.74;76.83
9899;BME280;4988;49.238;6.698;2023-04-05T00:04:45;99788.50;;;1.73;77.47
9899;BME280;4988;49.238;6.698;2023-04-05T00:07:21;99781.50;;;1.77;76.86
9899;BME280;4988;49.238;6.698;2023-04-05T00:09:48;99788.50;;;1.69;77.12
9899;BME280;4988;49.238;6.698;2023-04-05T00:12:14;99778.00;;;1.63;77.12
9899;BME280;4988;49.238;6.698;2023-04-05T00:14:40;99776.25;;;1.60;77.93
9899;BME280;4988;49.238;6.698;2023-04-05T00:17:05;99778.00;;;1.59;78.52
9899;BME280;4988;49.238;6.698;2023-04-05T00:19:31;99767.50;;;1.67;78.17
9899;BME280;4988;49.238;6.698;2023-04-05T00:21:58;99762.25;;;1.72;78.67
9899;BME280;4988;49.238;6.698;2023-04-05T00:24:24;99757.91;;;1.80;79.48
9899;BME280;4988;49.238;6.698;2023-04-05T00:26:49;99764.00;;;1.82;78.62
9899;BME280;4988;49.238;6.698;2023-04-05T00:29:15;99755.25;;;1.85;78.71
9899;BME280;4988;49.238;6.698;2023-04-05T00:31:40;99758.78;;;1.84;78.55
9899;BME280;4988;49.238;6.698;2023-04-05T00:34:05;99758.75;;;1.85;78.36
9899;BME280;4988;49.238;6.698;2023-04-05T00:36:33;99757.88;;;2.03;75.96
9899;BME280;4988;49.238;6.698;2023-04-05T00:38:58;99756.13;;;1.98;75.10
9899;BME280;4988;49.238;6.698;2023-04-05T00:41:23;99759.63;;;1.84;76.83
9899;BME280;4988;49.238;6.698;2023-04-05T00:43:49;99752.63;;;1.79;77.97
9899;BME280;4988;49.238;6.698;2023-04-05T00:46:15;99752.63;;;1.77;77.57
9899;BME280;4988;49.238;6.698;2023-04-05T00:48:40;99753.53;;;1.59;77.93
9899;BME280;4988;49.238;6.698;2023-04-05T00:51:06;99750.03;;;1.62;78.30
9899;BME280;4988;49.238;6.698;2023-04-05T00:53:36;99759.66;;;1.70;78.39
9899;BME280;4988;49.238;6.698;2023-04-05T00:56:02;99759.63;;;1.67;77.94
9899;BME280;4988;49.238;6.698;2023-04-05T00:58:28;99758.75;;;1.74;77.20
9899;BME280;4988;49.238;6.698;2023-04-05T01:00:59;99750.03;;;1.57;77.55
9899;BME280;4988;49.238;6.698;2023-04-05T01:03:28;99753.47;;;1.25;79.14
9899;BME280;4988;49.238;6.698;2023-04-05T01:06:04;99750.84;;;1.17;79.51
9899;BME280;4988;49.238;6.698;2023-04-05T01:11:44;99746.44;;;1.07;81.07
9899;BME280;4988;49.238;6.698;2023-04-05T01:14:10;99743.81;;;1.01;81.06
9899;BME280;4988;49.238;6.698;2023-04-05T01:16:36;99741.13;;;0.73;80.33
9899;BME280;4988;49.238;6.698;2023-04-05T01:19:01;99740.13;;;0.49;81.42
9899;BME280;4988;49.238;6.698;2023-04-05T01:24:41;99746.13;;;0.23;84.88
9899;BME280;4988;49.238;6.698;2023-04-05T01:27:17;99745.25;;;0.24;84.83
9899;BME280;4988;49.238;6.698;2023-04-05T01:29:52;99753.84;;;0.05;85.83
9899;BME280;4988;49.238;6.698;2023-04-05T01:35:08;99738.19;;;0.08;84.88
9899;BME280;4988;49.238;6.698;2023-04-05T01:37:37;99737.38;;;0.20;84.53
9899;BME280;4988;49.238;6.698;2023-04-05T01:40:04;99732.13;;;0.20;85.20
9899;BME280;4988;49.238;6.698;2023-04-05T01:42:30;99727.78;;;0.20;85.38
9899;BME280;4988;49.238;6.698;2023-04-05T01:44:56;99730.44;;;0.28;85.28
9899;BME280;4988;49.238;6.698;2023-04-05T01:47:22;99740.94;;;0.34;85.16
9899;BME280;4988;49.238;6.698;2023-04-05T01:49:47;99734.88;;;0.40;85.35
9899;BME280;4988;49.238;6.698;2023-04-05T01:52:12;99732.28;;;0.49;84.81
9899;BME280;4988;49.238;6.698;2023-04-05T01:54:38;99731.41;;;0.47;85.57
9899;BME280;4988;49.238;6.698;2023-04-05T01:57:04;99734.03;;;0.50;85.19
9899;BME280;4988;49.238;6.698;2023-04-05T01:59:29;99734.94;;;0.60;84.97
9899;BME280;4988;49.238;6.698;2023-04-05T02:01:55;99735.88;;;0.67;84.61
9899;BME280;4988;49.238;6.698;2023-04-05T02:04:20;99741.97;;;0.66;84.01
9899;BME280;4988;49.238;6.698;2023-04-05T02:06:46;99743.66;;;0.57;83.33
9899;BME280;4988;49.238;6.698;2023-04-05T02:09:11;99747.16;;;0.56;82.36
9899;BME280;4988;49.238;6.698;2023-04-05T02:11:36;99739.28;;;0.56;82.20
9899;BME280;4988;49.238;6.698;2023-04-05T02:14:02;99734.91;;;0.49;82.87
9899;BME280;4988;49.238;6.698;2023-04-05T02:16:28;99733.16;;;0.45;82.64
9899;BME280;4988;49.238;6.698;2023-04-05T02:18:57;99729.56;;;0.27;83.53
9899;BME280;4988;49.238;6.698;2023-04-05T02:21:24;99724.28;;;0.20;84.46
9899;BME280;4988;49.238;6.698;2023-04-05T02:23:50;99719.88;;;0.11;84.75
9899;BME280;4988;49.238;6.698;2023-04-05T02:26:16;99712.91;;;0.11;85.37
9899;BME280;4988;49.238;6.698;2023-04-05T02:28:41;99715.56;;;0.19;84.99
9899;BME280;4988;49.238;6.698;2023-04-05T02:31:10;99714.72;;;0.29;84.70
9899;BME280;4988;49.238;6.698;2023-04-05T02:33:37;99716.44;;;0.26;84.52
9899;BME280;4988;49.238;6.698;2023-04-05T02:36:04;99714.66;;;0.12;85.10
9899;BME280;4988;49.238;6.698;2023-04-05T02:38:34;99721.63;;;0.09;85.07
9899;BME280;4988;49.238;6.698;2023-04-05T02:41:00;99719.03;;;0.15;84.97
9899;BME280;4988;49.238;6.698;2023-04-05T02:43:25;99722.56;;;0.20;85.15
9899;BME280;4988;49.238;6.698;2023-04-05T02:45:51;99721.69;;;0.23;85.15
9899;BME280;4988;49.238;6.698;2023-04-05T02:48:16;99712.06;;;0.23;85.46
9899;BME280;4988;49.238;6.698;2023-04-05T02:50:49;99718.22;;;0.27;84.49
9899;BME280;4988;49.238;6.698;2023-04-05T02:53:15;99716.44;;;0.26;85.43
9899;BME280;4988;49.238;6.698;2023-04-05T02:55:41;99709.47;;;0.23;85.60
9899;BME280;4988;49.238;6.698;2023-04-05T02:58:06;99708.63;;;0.27;86.16
9899;BME280;4988;49.238;6.698;2023-04-05T03:00:32;99709.53;;;0.34;85.07
9899;BME280;4988;49.238;6.698;2023-04-05T03:02:58;99710.41;;;0.38;85.01
9899;BME280;4988;49.238;6.698;2023-04-05T03:05:23;99706.06;;;0.40;84.47
9899;BME280;4988;49.238;6.698;2023-04-05T03:07:48;99701.69;;;0.39;84.85
9899;BME280;4988;49.238;6.698;2023-04-05T03:10:16;99706.09;;;0.44;83.99
9899;BME280;4988;49.238;6.698;2023-04-05T03:12:43;99709.53;;;0.42;84.84
9899;BME280;4988;49.238;6.698;2023-04-05T03:15:09;99705.22;;;0.50;83.39
9899;BME280;4988;49.238;6.698;2023-04-05T03:17:34;99701.72;;;0.48;83.40
9899;BME280;4988;49.238;6.698;2023-04-05T03:20:02;99699.97;;;0.41;83.77
9899;BME280;4988;49.238;6.698;2023-04-05T03:22:29;99706.03;;;0.35;84.26
9899;BME280;4988;49.238;6.698;2023-04-05T03:24:54;99710.38;;;0.31;84.34
9899;BME280;4988;49.238;6.698;2023-04-05T03:27:21;99711.28;;;0.34;84.48
9899;BME280;4988;49.238;6.698;2023-04-05T03:29:46;99704.25;;;0.28;83.87
9899;BME280;4988;49.238;6.698;2023-04-05T03:32:13;99712.91;;;0.14;83.86
9899;BME280;4988;49.238;6.698;2023-04-05T03:34:38;99715.34;;;-0.18;85.49
9899;BME280;4988;49.238;6.698;2023-04-05T03:37:03;99723.88;;;-0.42;86.28
9899;BME280;4988;49.238;6.698;2023-04-05T03:39:28;99714.88;;;-0.77;87.25
9899;BME280;4988;49.238;6.698;2023-04-05T03:41:54;99719.06;;;-0.93;87.46
9899;BME280;4988;49.238;6.698;2023-04-05T03:44:20;99720.69;;;-1.06;89.58
9899;BME280;4988;49.238;6.698;2023-04-05T03:46:46;99725.03;;;-1.08;90.04
9899;BME280;4988;49.238;6.698;2023-04-05T03:49:11;99718.09;;;-1.06;90.10
9899;BME280;4988;49.238;6.698;2023-04-05T03:51:36;99727.78;;;-0.94;89.51
9899;BME280;4988;49.238;6.698;2023-04-05T03:54:02;99725.31;;;-0.75;89.32
9899;BME280;4988;49.238;6.698;2023-04-05T03:56:27;99724.53;;;-0.68;88.54
9899;BME280;4988;49.238;6.698;2023-04-05T03:58:52;99707.19;;;-0.57;87.55
9899;BME280;4988;49.238;6.698;2023-04-05T04:01:18;99718.53;;;-0.58;86.91
9899;BME280;4988;49.238;6.698;2023-04-05T04:03:43;99722.09;;;-0.48;86.02
9899;BME280;4988;49.238;6.698;2023-04-05T04:06:09;99716.84;;;-0.51;87.17
9899;BME280;4988;49.238;6.698;2023-04-05T04:08:35;99713.31;;;-0.55;87.86
9899;BME280;4988;49.238;6.698;2023-04-05T04:11:01;99714.25;;;-0.46;86.84
9899;BME280;4988;49.238;6.698;2023-04-05T04:13:26;99716.88;;;-0.43;86.53
9899;BME280;4988;49.238;6.698;2023-04-05T04:15:51;99709.91;;;-0.46;86.54
9899;BME280;4988;49.238;6.698;2023-04-05T04:18:17;99715.16;;;-0.43;86.80
9899;BME280;4988;49.238;6.698;2023-04-05T04:20:42;99710.84;;;-0.39;86.87
9899;BME280;4988;49.238;6.698;2023-04-05T04:23:07;99717.84;;;-0.35;85.92
9899;BME280;4988;49.238;6.698;2023-04-05T04:25:35;99710.81;;;-0.41;86.17
9899;BME280;4988;49.238;6.698;2023-04-05T04:28:01;99708.19;;;-0.41;86.82
9899;BME280;4988;49.238;6.698;2023-04-05T04:30:27;99714.34;;;-0.33;85.68
9899;BME280;4988;49.238;6.698;2023-04-05T04:32:52;99717.78;;;-0.43;85.56
9899;BME280;4988;49.238;6.698;2023-04-05T04:35:26;99714.25;;;-0.45;86.76
9899;BME280;4988;49.238;6.698;2023-04-05T04:37:55;99710.69;;;-0.55;86.64
9899;BME280;4988;49.238;6.698;2023-04-05T04:40:26;99720.34;;;-0.49;86.69
9899;BME280;4988;49.238;6.698;2023-04-05T04:42:54;99710.78;;;-0.44;85.74
9899;BME280;4988;49.238;6.698;2023-04-05T04:45:23;99713.34;;;-0.52;85.99
9899;BME280;4988;49.238;6.698;2023-04-05T04:47:49;99713.31;;;-0.56;86.20
9899;BME280;4988;49.238;6.698;2023-04-05T04:50:17;99718.53;;;-0.53;85.89
9899;BME280;4988;49.238;6.698;2023-04-05T04:52:44;99718.59;;;-0.50;85.96
9899;BME280;4988;49.238;6.698;2023-04-05T04:55:11;99712.47;;;-0.51;85.53
9899;BME280;4988;49.238;6.698;2023-04-05T04:57:39;99720.31;;;-0.51;85.65
9899;BME280;4988;49.238;6.698;2023-04-05T05:00:05;99708.09;;;-0.56;86.43
9899;BME280;4988;49.238;6.698;2023-04-05T05:02:37;99718.53;;;-0.56;86.13
9899;BME280;4988;49.238;6.698;2023-04-05T05:05:03;99715.06;;;-0.55;86.64
9899;BME280;4988;49.238;6.698;2023-04-05T05:07:28;99713.28;;;-0.59;86.48
9899;BME280;4988;49.238;6.698;2023-04-05T05:09:54;99712.41;;;-0.61;86.42
9899;BME280;4988;49.238;6.698;2023-04-05T05:12:20;99711.47;;;-0.68;86.51
9899;BME280;4988;49.238;6.698;2023-04-05T05:14:46;99712.31;;;-0.69;86.52
9899;BME280;4988;49.238;6.698;2023-04-05T05:17:11;99707.97;;;-0.69;86.81
9899;BME280;4988;49.238;6.698;2023-04-05T05:19:37;99710.59;;;-0.67;86.77
9899;BME280;4988;49.238;6.698;2023-04-05T05:22:02;99719.13;;;-0.88;86.66
9899;BME280;4988;49.238;6.698;2023-04-05T05:24:27;99723.25;;;-1.09;88.03
9899;BME280;4988;49.238;6.698;2023-04-05T05:26:53;99722.34;;;-1.16;88.21
9899;BME280;4988;49.238;6.698;2023-04-05T05:29:18;99723.38;;;-1.00;88.20
9899;BME280;4988;49.238;6.698;2023-04-05T05:31:44;99722.69;;;-0.80;87.29
9899;BME280;4988;49.238;6.698;2023-04-05T05:34:10;99714.94;;;-0.71;86.46
9899;BME280;4988;49.238;6.698;2023-04-05T05:36:35;99721.09;;;-0.64;87.01
9899;BME280;4988;49.238;6.698;2023-04-05T05:39:01;99715.06;;;-0.52;86.75
9899;BME280;4988;49.238;6.698;2023-04-05T05:41:29;99720.44;;;-0.37;86.49
9899;BME280;4988;49.238;6.698;2023-04-05T05:43:54;99714.41;;;-0.26;85.85
9899;BME280;4988;49.238;6.698;2023-04-05T05:46:20;99720.50;;;-0.29;85.07
9899;BME280;4988;49.238;6.698;2023-04-05T05:48:45;99715.03;;;-0.58;85.15
9899;BME280;4988;49.238;6.698;2023-04-05T05:51:10;99720.16;;;-0.71;86.02
9899;BME280;4988;49.238;6.698;2023-04-05T05:53:37;99715.72;;;-0.78;86.62
9899;BME280;4988;49.238;6.698;2023-04-05T05:56:02;99721.88;;;-0.73;87.33
9899;BME280;4988;49.238;6.698;2023-04-05T05:58:28;99725.41;;;-0.68;87.80
9899;BME280;4988;49.238;6.698;2023-04-05T06:00:53;99728.94;;;-0.61;87.98
9899;BME280;4988;49.238;6.698;2023-04-05T06:03:22;99735.94;;;-0.60;87.68
9899;BME280;4988;49.238;6.698;2023-04-05T06:05:55;99729.97;;;-0.45;87.63
9899;BME280;4988;49.238;6.698;2023-04-05T06:08:22;99730.94;;;-0.30;87.58
9899;BME280;4988;49.238;6.698;2023-04-05T06:10:48;99733.69;;;-0.10;86.73
9899;BME280;4988;49.238;6.698;2023-04-05T06:13:14;99729.41;;;-0.04;86.76
9899;BME280;4988;49.238;6.698;2023-04-05T06:15:41;99738.19;;;0.08;85.90
9899;BME280;4988;49.238;6.698;2023-04-05T06:18:06;99729.47;;;0.10;86.05
9899;BME280;4988;49.238;6.698;2023-04-05T06:20:31;99729.53;;;0.21;86.02
9899;BME280;4988;49.238;6.698;2023-04-05T06:22:57;99730.47;;;0.31;86.46
9899;BME280;4988;49.238;6.698;2023-04-05T06:25:22;99733.13;;;0.42;85.75
9899;BME280;4988;49.238;6.698;2023-04-05T06:27:47;99726.19;;;0.50;85.04
9899;BME280;4988;49.238;6.698;2023-04-05T06:30:13;99735.84;;;0.65;83.43
9899;BME280;4988;49.238;6.698;2023-04-05T06:32:38;99735.00;;;0.74;82.70
9899;BME280;4988;49.238;6.698;2023-04-05T06:35:05;99733.25;;;0.73;82.75
9899;BME280;4988;49.238;6.698;2023-04-05T06:37:30;99735.00;;;0.74;82.77
9899;BME280;4988;49.238;6.698;2023-04-05T06:39:56;99727.13;;;0.72;82.81
9899;BME280;4988;49.238;6.698;2023-04-05T06:42:22;99720.16;;;0.74;82.36
9899;BME280;4988;49.238;6.698;2023-04-05T06:44:47;99725.41;;;0.82;83.23
9899;BME280;4988;49.238;6.698;2023-04-05T06:47:13;99718.47;;;0.90;83.17
9899;BME280;4988;49.238;6.698;2023-04-05T06:49:38;99720.22;;;0.99;83.01
9899;BME280;4988;49.238;6.698;2023-04-05T06:52:04;99726.34;;;1.12;82.79
9899;BME280;4988;49.238;6.698;2023-04-05T06:54:33;99724.66;;;1.23;81.74
9899;BME280;4988;49.238;6.698;2023-04-05T06:56:59;99729.00;;;1.31;81.58
9899;BME280;4988;49.238;6.698;2023-04-05T06:59:24;99731.66;;;1.43;81.18
9899;BME280;4988;49.238;6.698;2023-04-05T07:01:49;99728.13;;;1.56;80.94
9899;BME280;4988;49.238;6.698;2023-04-05T07:04:15;99732.50;;;1.81;79.81
9899;BME280;4988;49.238;6.698;2023-04-05T07:06:40;99729.00;;;1.97;78.73
9899;BME280;4988;49.238;6.698;2023-04-05T07:09:06;99723.72;;;2.06;78.98
9899;BME280;4988;49.238;6.698;2023-04-05T07:11:31;99723.69;;;2.19;78.56
9899;BME280;4988;49.238;6.698;2023-04-05T07:13:58;99728.94;;;2.30;77.82
9899;BME280;4988;49.238;6.698;2023-04-05T07:16:23;99725.41;;;2.35;77.63
9899;BME280;4988;49.238;6.698;2023-04-05T07:18:49;99720.13;;;2.43;77.88
9899;BME280;4988;49.238;6.698;2023-04-05T07:21:15;99719.19;;;2.58;76.96
9899;BME280;4988;49.238;6.698;2023-04-05T07:23:40;99711.28;;;2.64;76.98
9899;BME280;4988;49.238;6.698;2023-04-05T07:26:06;99712.09;;;2.76;77.03
9899;BME280;4988;49.238;6.698;2023-04-05T07:28:33;99709.44;;;2.82;75.26
9899;BME280;4988;49.238;6.698;2023-04-05T07:31:00;99703.25;;;2.90;75.02
9899;BME280;4988;49.238;6.698;2023-04-05T07:33:25;99709.31;;;3.03;74.80
9899;BME280;4988;49.238;6.698;2023-04-05T07:35:52;99705.78;;;3.11;74.49
9899;BME280;4988;49.238;6.698;2023-04-05T07:38:18;99706.53;;;3.25;74.66
9899;BME280;4988;49.238;6.698;2023-04-05T07:40:43;99707.34;;;3.36;74.79
9899;BME280;4988;49.238;6.698;2023-04-05T07:43:09;99700.22;;;3.49;73.50
9899;BME280;4988;49.238;6.698;2023-04-05T07:45:34;99701.88;;;3.61;70.33
9899;BME280;4988;49.238;6.698;2023-04-05T07:47:59;99704.44;;;3.69;68.13
9899;BME280;4988;49.238;6.698;2023-04-05T07:50:26;99703.44;;;3.79;67.86
9899;BME280;4988;49.238;6.698;2023-04-05T07:52:51;99703.34;;;3.90;66.54
9899;BME280;4988;49.238;6.698;2023-04-05T07:55:16;99705.88;;;4.04;67.43
9899;BME280;4988;49.238;6.698;2023-04-05T07:57:42;99703.97;;;4.17;64.85
9899;BME280;4988;49.238;6.698;2023-04-05T08:00:07;99700.34;;;4.26;65.26
9899;BME280;4988;49.238;6.698;2023-04-05T08:02:36;99698.53;;;4.31;64.73
9899;BME280;4988;49.238;6.698;2023-04-05T08:05:01;99701.91;;;4.44;65.78
9899;BME280;4988;49.238;6.698;2023-04-05T08:07:28;99699.13;;;4.56;65.34
9899;BME280;4988;49.238;6.698;2023-04-05T08:09:53;99704.34;;;4.61;62.53
9899;BME280;4988;49.238;6.698;2023-04-05T08:12:22;99701.63;;;4.67;62.26
9899;BME280;4988;49.238;6.698;2023-04-05T08:14:47;99700.66;;;4.73;61.18
9899;BME280;4988;49.238;6.698;2023-04-05T08:17:12;99694.38;;;4.81;60.20
9899;BME280;4988;49.238;6.698;2023-04-05T08:19:39;99689.06;;;4.86;60.23
9899;BME280;4988;49.238;6.698;2023-04-05T08:22:04;99693.28;;;4.98;59.50
9899;BME280;4988;49.238;6.698;2023-04-05T08:24:30;99684.38;;;5.07;61.09
9899;BME280;4988;49.238;6.698;2023-04-05T08:26:55;99684.13;;;5.24;60.64
9899;BME280;4988;49.238;6.698;2023-04-05T08:29:21;99676.84;;;5.40;59.32
9899;BME280;4988;49.238;6.698;2023-04-05T08:31:46;99687.22;;;5.49;59.34
9899;BME280;4988;49.238;6.698;2023-04-05T08:34:11;99681.81;;;5.58;59.54
9899;BME280;4988;49.238;6.698;2023-04-05T08:36:37;99680.78;;;5.67;59.75
9899;BME280;4988;49.238;6.698;2023-04-05T08:39:02;99679.69;;;5.77;57.68
9899;BME280;4988;49.238;6.698;2023-04-05T08:41:40;99676.84;;;5.90;58.51
9899;BME280;4988;49.238;6.698;2023-04-05T08:44:09;99676.63;;;6.02;57.92
9899;BME280;4988;49.238;6.698;2023-04-05T08:46:36;99680.88;;;6.13;57.99
9899;BME280;4988;49.238;6.698;2023-04-05T08:49:06;99677.28;;;6.15;56.67
9899;BME280;4988;49.238;6.698;2023-04-05T08:51:32;99667.31;;;6.30;56.11
9899;BME280;4988;49.238;6.698;2023-04-05T08:53:58;99674.34;;;6.31;56.92
9899;BME280;4988;49.238;6.698;2023-04-05T08:56:26;99663.50;;;6.44;57.58
9899;BME280;4988;49.238;6.698;2023-04-05T09:01:24;99663.97;;;6.64;56.86
9899;BME280;4988;49.238;6.698;2023-04-05T09:03:51;99666.47;;;6.71;55.97
9899;BME280;4988;49.238;6.698;2023-04-05T09:06:18;99666.50;;;6.68;54.15
9899;BME280;4988;49.238;6.698;2023-04-05T09:08:45;99671.88;;;6.65;54.54
9899;BME280;4988;49.238;6.698;2023-04-05T09:11:11;99669.09;;;6.71;53.49
9899;BME280;4988;49.238;6.698;2023-04-05T09:13:36;99666.31;;;6.78;54.30
9899;BME280;4988;49.238;6.698;2023-04-05T09:16:02;99666.16;;;6.85;53.73
9899;BME280;4988;49.238;6.698;2023-04-05T09:18:28;99667.75;;;6.91;52.86
9899;BME280;4988;49.238;6.698;2023-04-05T09:21:01;99667.84;;;6.88;54.92
9899;BME280;4988;49.238;6.698;2023-04-05T09:23:28;99669.41;;;6.97;54.25
9899;BME280;4988;49.238;6.698;2023-04-05T09:25:53;99665.69;;;7.05;52.66
9899;BME280;4988;49.238;6.698;2023-04-05T09:28:18;99660.53;;;6.99;51.68
9899;BME280;4988;49.238;6.698;2023-04-05T09:30:47;99666.94;;;6.89;53.51
9899;BME280;4988;49.238;6.698;2023-04-05T09:33:15;99669.50;;;6.92;53.80
9899;BME280;4988;49.238;6.698;2023-04-05T09:35:43;99663.53;;;7.21;54.39
9899;BME280;4988;49.238;6.698;2023-04-05T09:38:08;99669.53;;;7.30;52.85
9899;BME280;4988;49.238;6.698;2023-04-05T09:40:42;99667.84;;;7.27;51.78
9899;BME280;4988;49.238;6.698;2023-04-05T09:43:09;99660.59;;;7.34;52.38
9899;BME280;4988;49.238;6.698;2023-04-05T09:45:42;99663.09;;;7.42;51.77
9899;BME280;4988;49.238;6.698;2023-04-05T09:48:08;99661.13;;;7.48;49.74
9899;BME280;4988;49.238;6.698;2023-04-05T09:50:34;99657.63;;;7.48;48.15
9899;BME280;4988;49.238;6.698;2023-04-05T09:53:10;99657.47;;;7.54;49.15
9899;BME280;4988;49.238;6.698;2023-04-05T09:55:40;99657.16;;;7.66;48.29
9899;BME280;4988;49.238;6.698;2023-04-05T09:58:10;99659.56;;;7.76;48.98
9899;BME280;4988;49.238;6.698;2023-04-05T10:00:36;99660.28;;;7.81;48.91
9899;BME280;4988;49.238;6.698;2023-04-05T10:03:01;99651.81;;;7.68;47.58
9899;BME280;4988;49.238;6.698;2023-04-05T10:05:27;99651.59;;;7.76;49.77
9899;BME280;4988;49.238;6.698;2023-04-05T10:07:54;99657.47;;;7.88;49.23
9899;BME280;4988;49.238;6.698;2023-04-05T10:10:21;99649.28;;;7.96;48.54
9899;BME280;4988;49.238;6.698;2023-04-05T10:12:48;99649.13;;;8.02;46.64
9899;BME280;4988;49.238;6.698;2023-04-05T10:15:14;99648.16;;;8.05;47.53
9899;BME280;4988;49.238;6.698;2023-04-05T10:18:09;99649.97;;;8.03;46.74
9899;BME280;4988;49.238;6.698;2023-04-05T10:20:38;99645.56;;;7.70;47.43
9899;BME280;4988;49.238;6.698;2023-04-05T10:23:12;99640.59;;;7.58;48.25
9899;BME280;4988;49.238;6.698;2023-04-05T10:28:34;99638.75;;;7.93;48.65
9899;BME280;4988;49.238;6.698;2023-04-05T10:31:10;99641.56;;;8.20;51.00
9899;BME280;4988;49.238;6.698;2023-04-05T10:33:44;99636.75;;;8.34;46.99
9899;BME280;4988;49.238;6.698;2023-04-05T10:41:19;99628.78;;;8.03;46.90
9899;BME280;4988;49.238;6.698;2023-04-05T10:43:45;99626.28;;;7.98;46.79
9899;BME280;4988;49.238;6.698;2023-04-05T10:46:18;99630.28;;;8.13;47.17
9899;BME280;4988;49.238;6.698;2023-04-05T10:48:58;99622.03;;;8.23;47.61
9899;BME280;4988;49.238;6.698;2023-04-05T10:51:28;99621.25;;;8.19;47.11
9899;BME280;4988;49.238;6.698;2023-04-05T10:53:55;99624.38;;;8.33;47.96
9899;BME280;4988;49.238;6.698;2023-04-05T10:56:21;99626.03;;;8.37;47.83
9899;BME280;4988;49.238;6.698;2023-04-05T10:58:47;99619.63;;;8.45;46.88
9899;BME280;4988;49.238;6.698;2023-04-05T11:01:16;99627.59;;;8.45;45.90
9899;BME280;4988;49.238;6.698;2023-04-05T11:03:51;99616.75;;;8.54;46.00
9899;BME280;4988;49.238;6.698;2023-04-05T11:06:36;99619.28;;;8.57;45.25
9899;BME280;4988;49.238;6.698;2023-04-05T11:09:11;99614.78;;;8.61;45.65
9899;BME280;4988;49.238;6.698;2023-04-05T11:11:50;99615.84;;;8.55;44.34
9899;BME280;4988;49.238;6.698;2023-04-05T11:14:20;99613.41;;;8.47;45.67
9899;BME280;4988;49.238;6.698;2023-04-05T11:16:47;99610.44;;;8.58;46.60
9899;BME280;4988;49.238;6.698;2023-04-05T11:19:15;99609.25;;;8.68;45.38
9899;BME280;4988;49.238;6.698;2023-04-05T11:21:41;99601.47;;;8.62;45.04
9899;BME280;4988;49.238;6.698;2023-04-05T11:24:09;99599.56;;;8.66;45.49
9899;BME280;4988;49.238;6.698;2023-04-05T11:26:52;99600.25;;;8.73;44.15
9899;BME280;4988;49.238;6.698;2023-04-05T11:29:47;99602.34;;;8.63;44.62
9899;BME280;4988;49.238;6.698;2023-04-05T11:32:14;99598.63;;;8.68;44.58
9899;BME280;4988;49.238;6.698;2023-04-05T11:34:41;99594.81;;;8.77;44.85
9899;BME280;4988;49.238;6.698;2023-04-05T11:37:06;99603.31;;;8.89;43.35
9899;BME280;4988;49.238;6.698;2023-04-05T11:39:32;99593.66;;;8.86;44.48
9899;BME280;4988;49.238;6.698;2023-04-05T11:41:59;99589.78;;;8.96;44.87
9899;BME280;4988;49.238;6.698;2023-04-05T11:44:26;99574.41;;;9.06;44.80
9899;BME280;4988;49.238;6.698;2023-04-05T11:46:53;99579.22;;;9.22;46.08
9899;BME280;4988;49.238;6.698;2023-04-05T11:49:21;99578.75;;;9.36;44.94
9899;BME280;4988;49.238;6.698;2023-04-05T11:51:47;99571.34;;;9.45;44.57
9899;BME280;4988;49.238;6.698;2023-04-05T11:56:55;99569.72;;;9.66;43.54
9899;BME280;4988;49.238;6.698;2023-04-05T11:59:27;99569.41;;;9.76;44.41
9899;BME280;4988;49.238;6.698;2023-04-05T12:02:00;99576.22;;;9.83;45.76
9899;BME280;4988;49.238;6.698;2023-04-05T12:04:26;99555.81;;;9.84;41.85
9899;BME280;4988;49.238;6.698;2023-04-05T12:07:12;99556.09;;;9.76;43.12
9899;BME280;4988;49.238;6.698;2023-04-05T12:09:57;99563.31;;;9.72;41.26
9899;BME280;4988;49.238;6.698;2023-04-05T12:12:23;99556.13;;;9.74;42.50
9899;BME280;4988;49.238;6.698;2023-04-05T12:14:48;99557.44;;;9.88;42.75
9899;BME280;4988;49.238;6.698;2023-04-05T12:17:13;99550.41;;;9.87;42.18
9899;BME280;4988;49.238;6.698;2023-04-05T12:19:39;99537.91;;;9.89;41.39
9899;BME280;4988;49.238;6.698;2023-04-05T12:22:04;99540.31;;;9.71;41.96
9899;BME280;4988;49.238;6.698;2023-04-05T12:24:30;99542.28;;;9.66;42.12
9899;BME280;4988;49.238;6.698;2023-04-05T12:26:55;99541.16;;;9.72;42.73
9899;BME280;4988;49.238;6.698;2023-04-05T12:29:21;99534.44;;;9.87;44.98
9899;BME280;4988;49.238;6.698;2023-04-05T12:31:49;99529.69;;;9.95;42.28
9899;BME280;4988;49.238;6.698;2023-04-05T12:34:22;99524.66;;;9.87;40.35
9899;BME280;4988;49.238;6.698;2023-04-05T12:36:48;99525.66;;;9.85;40.94
9899;BME280;4988;49.238;6.698;2023-04-05T12:39:15;99524.72;;;9.86;40.40
9899;BME280;4988;49.238;6.698;2023-04-05T12:41:40;99524.22;;;10.00;41.70
9899;BME280;4988;49.238;6.698;2023-04-05T12:44:16;99526.56;;;10.07;41.26
9899;BME280;4988;49.238;6.698;2023-04-05T12:47:01;99517.72;;;10.07;40.67
9899;BME280;4988;49.238;6.698;2023-04-05T12:49:27;99511.19;;;10.16;41.40
9899;BME280;4988;49.238;6.698;2023-04-05T12:51:53;99516.38;;;10.19;40.88
9899;BME280;4988;49.238;6.698;2023-04-05T12:54:22;99518.19;;;10.18;41.79
9899;BME280;4988;49.238;6.698;2023-04-05T12:56:52;99516.22;;;10.23;42.16
9899;BME280;4988;49.238;6.698;2023-04-05T12:59:19;99505.22;;;10.33;41.36
9899;BME280;4988;49.238;6.698;2023-04-05T13:01:44;99502.94;;;10.47;41.60
9899;BME280;4988;49.238;6.698;2023-04-05T13:04:09;99505.28;;;10.55;41.60
9899;BME280;4988;49.238;6.698;2023-04-05T13:06:35;99504.28;;;10.57;42.00
9899;BME280;4988;49.238;6.698;2023-04-05T13:09:00;99493.88;;;10.73;44.58
9899;BME280;4988;49.238;6.698;2023-04-05T13:11:25;99492.81;;;10.77;41.45
9899;BME280;4988;49.238;6.698;2023-04-05T13:13:51;99489.66;;;10.68;41.34
9899;BME280;4988;49.238;6.698;2023-04-05T13:16:16;99490.78;;;10.62;42.01
9899;BME280;4988;49.238;6.698;2023-04-05T13:18:41;99488.91;;;10.64;40.86
9899;BME280;4988;49.238;6.698;2023-04-05T13:21:07;99484.81;;;10.55;41.14
9899;BME280;4988;49.238;6.698;2023-04-05T13:23:34;99473.41;;;10.53;41.82
9899;BME280;4988;49.238;6.698;2023-04-05T13:26:00;99484.28;;;10.47;41.18
9899;BME280;4988;49.238;6.698;2023-04-05T13:28:25;99484.47;;;10.42;41.34
9899;BME280;4988;49.238;6.698;2023-04-05T13:30:51;99483.78;;;10.37;41.09
9899;BME280;4988;49.238;6.698;2023-04-05T13:33:17;99476.03;;;10.31;42.02
9899;BME280;4988;49.238;6.698;2023-04-05T13:35:43;99479.84;;;10.24;42.84
9899;BME280;4988;49.238;6.698;2023-04-05T13:38:08;99481.97;;;10.38;41.18
9899;BME280;4988;49.238;6.698;2023-04-05T13:40:33;99478.97;;;10.47;41.30
9899;BME280;4988;49.238;6.698;2023-04-05T13:42:59;99474.56;;;10.46;41.34
9899;BME280;4988;49.238;6.698;2023-04-05T13:45:25;99470.72;;;10.53;41.39
9899;BME280;4988;49.238;6.698;2023-04-05T13:47:51;99472.19;;;10.60;40.81
9899;BME280;4988;49.238;6.698;2023-04-05T13:50:17;99465.94;;;10.61;40.01
9899;BME280;4988;49.238;6.698;2023-04-05T13:52:42;99455.28;;;10.61;40.03